• Join FlightAware (Why Join?)
  • Login
  • US Flag 
05:28PM EDT


 

Airport Tracker/Info


-or-


 

Live Flight TrackerFlight Track Log ✈ GUG716 ✈ 17-Nov-2013 ✈ MROC / SJO - MNMG / MGA

Flight Track Log - Related Links

Times and Time Zones

All times are in EST time to prevent confusion due to time zone crossing. See the GUG716 flight status page for this flight to view local times or setup timezone preferences in your user account.

Time Position Orientation Groundspeed Altitude Reporting Facility
EST Latitude Longitude Course Direction KTS MPH feet Rate Location/Type
12:34PM 11.1812 -85.2871 318° Northwest  Level Estimated
12:35PM 11.2268 -85.3287 318° Northwest  Level Estimated
12:36PM 11.2724 -85.3704 318° Northwest  Level Estimated
12:37PM 11.3180 -85.4120 318° Northwest  Level Estimated
12:38PM 11.3635 -85.4537 318° Northwest  Level Estimated
12:39PM 11.4091 -85.4954 318° Northwest  Level Estimated
12:40PM 11.4547 -85.5371 318° Northwest  Level Estimated
12:41PM 11.5002 -85.5788 318° Northwest  Level Estimated
12:42PM 11.5458 -85.6206 318° Northwest  Level Estimated
12:43PM 11.5913 -85.6623 318° Northwest  Level Estimated
12:44PM 11.6369 -85.7041 318° Northwest  Level Estimated
12:45PM 11.6824 -85.7459 318° Northwest  Level Estimated
12:46PM 11.7279 -85.7877 318° Northwest  Level Estimated
12:47PM 11.7734 -85.8295 318° Northwest  Level Estimated
12:48PM 11.8189 -85.8713 318° Northwest  Level Estimated
12:49PM 11.8645 -85.9131 318° Northwest  Level Estimated
12:50PM 11.9100 -85.9549 318° Northwest  Level Estimated
12:51PM 11.9555 -85.9968 318° Northwest  Level Estimated
12:52PM 12.0009 -86.0387 318° Northwest  Level Estimated
12:53PM 12.0464 -86.0806 318° Northwest  Level Estimated
12:54PM 12.0919 -86.1225 318° Northwest  Level Estimated
12:55PM 12.1374 -86.1644 318° Northwest  Level Estimated
12:56PM 12.1415 -86.1682 318° Northwest  Level Estimated
12:57PM 12.1415 -86.1682 26° Northeast  Level Estimated
12:58PM 12.1415 -86.1682 26° Northeast  Level Estimated
12:59PM 12.1415 -86.1682 26° Northeast  Level Estimated
01:00PM 12.1415 -86.1682 26° Northeast  Level Estimated
01:01PM 12.1415 -86.1682 26° Northeast  Level Estimated
01:02PM 12.1415 -86.1682 26° Northeast  Level Estimated
01:03PM 12.1415 -86.1682 26° Northeast  Level Estimated
01:04PM 12.1415 -86.1682 26° Northeast  Level Estimated
01:05PM 12.1415 -86.1682 26° Northeast  Level Estimated
01:06PM 12.1415 -86.1682 26° Northeast  Level Estimated
01:07PM 12.1415 -86.1682 26° Northeast  Level Estimated
01:08PM 12.1415 -86.1682 26° Northeast  Level Estimated
01:09PM 12.1415 -86.1682 26° Northeast  Level Estimated
01:10PM 12.1415 -86.1682 26° Northeast  Level Estimated
01:11PM 12.1415 -86.1682 26° Northeast  Level Estimated